createdAt,value
2022-09-12T00:04:16.990Z,10.55
2022-09-12T00:09:13.104Z,10.00
2022-09-12T00:11:45.448Z,12.20
2022-09-12T00:14:15.799Z,12.15
2022-09-12T00:16:42.682Z,10.57
2022-09-12T00:19:10.479Z,12.35
2022-09-12T00:21:38.713Z,10.32
2022-09-12T00:24:06.520Z,9.48
2022-09-12T00:26:33.326Z,13.38
2022-09-12T00:31:27.326Z,10.65
2022-09-12T00:33:59.037Z,12.55
2022-09-12T00:36:26.604Z,12.93
2022-09-12T00:38:54.707Z,10.07
2022-09-12T00:41:23.375Z,12.50
2022-09-12T00:43:59.148Z,11.27
2022-09-12T00:46:28.377Z,11.90
2022-09-12T00:49:01.373Z,12.60
2022-09-12T00:51:32.095Z,12.98
2022-09-12T00:54:02.898Z,11.60
2022-09-12T00:56:30.090Z,12.25
2022-09-12T00:59:08.338Z,11.32
2022-09-12T01:01:36.137Z,11.95
2022-09-12T01:04:03.389Z,10.95
2022-09-12T01:06:40.435Z,11.27
2022-09-12T01:09:08.539Z,10.93
2022-09-12T01:11:38.988Z,12.27
2022-09-12T01:14:07.409Z,11.15
2022-09-12T01:16:38.148Z,10.45
2022-09-12T01:19:29.461Z,12.30
2022-09-12T01:22:26.938Z,11.07
2022-09-12T01:25:24.879Z,10.90
2022-09-12T01:28:09.907Z,12.43
2022-09-12T01:31:16.395Z,12.23
2022-09-12T01:34:23.091Z,12.15
2022-09-12T01:37:20.814Z,12.15
2022-09-12T01:40:03.440Z,13.17
2022-09-12T01:42:49.729Z,12.10
2022-09-12T01:45:22.522Z,11.65
2022-09-12T01:48:11.121Z,12.73
2022-09-12T01:50:51.284Z,11.43
2022-09-12T01:53:28.370Z,10.88
2022-09-12T01:56:02.311Z,11.13
2022-09-12T01:58:38.041Z,13.05
2022-09-12T02:01:18.849Z,13.43
2022-09-12T02:03:54.044Z,13.13
2022-09-12T02:06:26.095Z,13.43
2022-09-12T02:08:56.079Z,12.20
2022-09-12T02:11:22.782Z,13.88
2022-09-12T02:14:11.215Z,13.02
2022-09-12T02:16:45.013Z,11.85
2022-09-12T02:19:20.912Z,14.18
2022-09-12T02:21:56.452Z,11.85
2022-09-12T02:24:30.025Z,12.85
2022-09-12T02:27:14.812Z,13.73
2022-09-12T02:29:44.571Z,11.90
2022-09-12T02:32:29.873Z,13.15
2022-09-12T02:35:07.282Z,10.77
2022-09-12T02:37:49.013Z,11.55
2022-09-12T02:40:16.315Z,12.88
2022-09-12T02:42:43.203Z,12.18
2022-09-12T02:47:52.630Z,13.77
2022-09-12T02:50:20.000Z,11.73
2022-09-12T02:52:46.915Z,12.82
2022-09-12T02:57:40.962Z,12.63
2022-09-12T03:00:09.020Z,15.18
2022-09-12T03:03:04.370Z,12.90
2022-09-12T03:05:47.244Z,12.55
2022-09-12T03:08:40.339Z,11.20
2022-09-12T03:11:46.471Z,12.05
2022-09-12T03:14:22.235Z,12.43
2022-09-12T03:17:14.387Z,12.73
2022-09-12T03:20:02.280Z,12.48
2022-09-12T03:22:51.046Z,13.55
2022-09-12T03:25:35.900Z,13.95
2022-09-12T03:28:07.485Z,13.82
2022-09-12T03:30:42.529Z,15.18
2022-09-12T03:33:18.777Z,12.60
2022-09-12T03:35:46.558Z,13.00
2022-09-12T03:38:13.621Z,11.82
2022-09-12T03:40:40.794Z,13.25
2022-09-12T03:43:08.854Z,12.07
2022-09-12T03:45:37.231Z,12.57
2022-09-12T03:48:05.966Z,14.73
2022-09-12T03:50:32.890Z,14.57
2022-09-12T03:55:26.895Z,13.60
2022-09-12T03:57:56.477Z,14.75
2022-09-12T04:00:23.418Z,11.77
2022-09-12T04:05:20.078Z,12.90
2022-09-12T04:07:46.864Z,13.20
2022-09-12T04:10:16.071Z,11.35
2022-09-12T04:12:43.852Z,12.75
2022-09-12T04:15:10.935Z,14.02
2022-09-12T04:17:37.651Z,14.88
2022-09-12T04:20:05.350Z,12.80
2022-09-12T04:22:33.243Z,13.60
2022-09-12T04:24:59.933Z,14.38
2022-09-12T04:27:26.718Z,15.63
2022-09-12T04:29:54.733Z,18.15
2022-09-12T04:32:22.266Z,16.33
2022-09-12T04:34:49.084Z,16.15
2022-09-12T04:39:43.634Z,15.98
2022-09-12T04:42:10.427Z,17.02
2022-09-12T04:44:37.638Z,16.20
2022-09-12T04:47:04.399Z,15.20
2022-09-12T04:49:31.111Z,15.38
2022-09-12T04:51:57.819Z,13.32
2022-09-12T04:54:24.876Z,16.55
2022-09-12T04:56:52.564Z,14.88
2022-09-12T04:59:21.069Z,14.63
2022-09-12T05:01:48.807Z,14.13
2022-09-12T05:04:15.803Z,14.93
2022-09-12T05:09:11.861Z,14.85
2022-09-12T05:12:03.885Z,15.80
2022-09-12T05:14:26.924Z,16.90
2022-09-12T05:16:53.754Z,13.63
2022-09-12T05:19:20.488Z,14.20
2022-09-12T05:21:47.130Z,14.30
2022-09-12T05:24:13.834Z,13.68
2022-09-12T05:26:40.478Z,16.85
2022-09-12T05:29:07.334Z,16.55
2022-09-12T05:31:34.932Z,15.52
2022-09-12T05:34:04.555Z,16.23
2022-09-12T05:36:31.865Z,15.05
2022-09-12T05:39:00.163Z,17.17
2022-09-12T05:41:32.822Z,15.27
2022-09-12T05:44:10.911Z,15.25
2022-09-12T05:46:39.357Z,16.90
2022-09-12T05:49:09.028Z,17.85
2022-09-12T05:51:38.788Z,15.60
2022-09-12T05:54:07.670Z,17.83
2022-09-12T05:56:41.265Z,18.13
2022-09-12T05:59:12.895Z,15.75
2022-09-12T06:01:40.209Z,15.10
2022-09-12T06:04:07.734Z,16.65
2022-09-12T06:06:41.431Z,15.88
2022-09-12T06:09:08.973Z,15.30
2022-09-12T06:11:37.354Z,15.88
2022-09-12T06:14:04.937Z,15.80
2022-09-12T06:16:33.765Z,14.77
2022-09-12T06:19:07.024Z,16.38
2022-09-12T06:21:37.774Z,15.20
2022-09-12T06:24:04.542Z,13.68
2022-09-12T06:26:31.381Z,16.17
2022-09-12T06:31:30.466Z,14.73
2022-09-12T06:34:00.592Z,13.85
2022-09-12T06:36:31.147Z,15.95
2022-09-12T06:39:00.935Z,13.48
2022-09-12T06:41:29.339Z,13.70
2022-09-12T06:43:56.246Z,15.07
2022-09-12T06:46:23.714Z,12.60
2022-09-12T06:48:50.600Z,13.50
2022-09-12T06:56:15.084Z,13.60
2022-09-12T06:58:43.270Z,15.25
2022-09-12T07:01:10.090Z,13.30
2022-09-12T07:06:15.624Z,14.83
2022-09-12T07:08:42.988Z,14.18
2022-09-12T07:11:21.193Z,13.55
2022-09-12T07:13:53.123Z,13.75
2022-09-12T07:16:20.335Z,12.73
2022-09-12T07:18:55.982Z,12.55
2022-09-12T07:21:22.886Z,12.95
2022-09-12T07:23:51.878Z,12.80
2022-09-12T07:26:18.628Z,12.73
2022-09-12T07:31:16.097Z,12.52
2022-09-12T07:33:43.322Z,13.77
2022-09-12T07:36:16.249Z,13.10
2022-09-12T07:38:43.992Z,12.23
2022-09-12T07:41:19.211Z,11.13
2022-09-12T07:43:46.086Z,13.80
2022-09-12T07:46:14.241Z,12.88
2022-09-12T07:48:41.179Z,12.77
2022-09-12T07:51:10.744Z,13.07
2022-09-12T07:53:39.995Z,11.98
2022-09-12T07:56:08.323Z,11.88
2022-09-12T07:58:36.587Z,12.55
2022-09-12T08:01:08.757Z,12.35
2022-09-12T08:03:36.444Z,10.93
2022-09-12T08:06:09.376Z,11.82
2022-09-12T08:08:36.577Z,10.75
2022-09-12T08:11:12.936Z,11.68
2022-09-12T08:13:41.128Z,11.47
2022-09-12T08:16:12.126Z,10.98
2022-09-12T08:18:40.332Z,10.15
2022-09-12T08:21:11.861Z,10.93
2022-09-12T08:23:38.590Z,9.30
2022-09-12T08:26:06.576Z,11.48
2022-09-12T08:28:35.069Z,10.20
2022-09-12T08:31:11.543Z,8.85
2022-09-12T08:33:38.639Z,9.10
2022-09-12T08:36:06.156Z,8.90
2022-09-12T08:38:37.091Z,8.93
2022-09-12T08:41:30.245Z,8.48
2022-09-12T08:44:21.364Z,8.57
2022-09-12T08:47:07.027Z,6.32
2022-09-12T08:49:39.855Z,7.70
2022-09-12T08:52:13.132Z,7.68
2022-09-12T08:54:40.798Z,5.95
2022-09-12T08:57:11.668Z,8.93
2022-09-12T08:59:42.192Z,5.82
2022-09-12T09:02:31.030Z,5.43
2022-09-12T09:05:07.017Z,7.25
2022-09-12T09:07:42.265Z,6.20
2022-09-12T09:10:40.234Z,5.95
2022-09-12T09:13:55.950Z,6.45
2022-09-12T09:16:42.378Z,5.55
2022-09-12T09:19:50.868Z,6.43
2022-09-12T09:22:26.906Z,6.75
2022-09-12T09:24:59.661Z,5.18
2022-09-12T09:27:41.596Z,5.80
2022-09-12T09:30:17.875Z,5.10
2022-09-12T09:32:50.364Z,6.43
2022-09-12T09:35:38.251Z,6.18
2022-09-12T09:38:20.363Z,4.65
2022-09-12T09:41:16.273Z,3.92
2022-09-12T09:43:43.082Z,4.22
2022-09-12T09:46:11.806Z,5.07
2022-09-12T09:48:44.527Z,5.78
2022-09-12T09:51:14.173Z,5.35
2022-09-12T09:53:55.580Z,6.30
2022-09-12T09:56:44.816Z,5.10
2022-09-12T09:59:27.972Z,5.10
2022-09-12T10:02:00.565Z,4.88
2022-09-12T10:04:31.214Z,5.30
2022-09-12T10:07:03.411Z,4.22
2022-09-12T10:09:35.170Z,4.60
2022-09-12T10:12:28.605Z,4.63
2022-09-12T10:15:00.780Z,4.15
2022-09-12T10:17:43.895Z,5.63
2022-09-12T10:20:32.516Z,4.50
2022-09-12T10:23:01.604Z,4.28
2022-09-12T10:25:28.659Z,4.80
2022-09-12T10:27:59.079Z,4.90
2022-09-12T10:30:28.402Z,4.82
2022-09-12T10:33:06.858Z,4.18
2022-09-12T10:35:45.326Z,4.57
2022-09-12T10:38:25.818Z,5.10
2022-09-12T10:41:03.476Z,4.13
2022-09-12T10:43:34.604Z,5.72
2022-09-12T10:46:19.918Z,4.70
2022-09-12T10:48:48.937Z,4.70
2022-09-12T10:51:35.957Z,3.85
2022-09-12T10:54:05.438Z,4.55
2022-09-12T10:56:38.593Z,4.10
2022-09-12T10:59:40.200Z,4.43
2022-09-12T11:02:29.113Z,3.95
2022-09-12T11:05:28.653Z,3.38
2022-09-12T11:08:07.667Z,4.72
2022-09-12T11:10:41.452Z,3.97
2022-09-12T11:13:29.524Z,3.47
2022-09-12T11:16:14.423Z,3.95
2022-09-12T11:19:03.706Z,3.80
2022-09-12T11:21:56.156Z,4.03
2022-09-12T11:24:53.579Z,4.10
2022-09-12T11:27:50.665Z,3.67
2022-09-12T11:30:18.300Z,3.92
2022-09-12T11:33:12.711Z,3.65
2022-09-12T11:35:55.178Z,3.38
2022-09-12T11:38:41.163Z,3.67
2022-09-12T11:41:34.171Z,3.58
2022-09-12T11:44:26.261Z,3.70
2022-09-12T11:46:52.961Z,3.45
2022-09-12T11:49:36.003Z,3.80
2022-09-12T11:52:05.598Z,3.88
2022-09-12T11:54:54.007Z,3.58
2022-09-12T11:57:53.769Z,3.88
2022-09-12T12:00:47.035Z,3.47
2022-09-12T12:03:27.367Z,3.30
2022-09-12T12:06:33.719Z,3.65
2022-09-12T12:09:00.665Z,3.85
2022-09-12T12:11:35.406Z,3.75
2022-09-12T12:14:14.660Z,3.42
2022-09-12T12:16:42.223Z,4.05
2022-09-12T12:19:15.070Z,3.28
2022-09-12T12:21:43.834Z,4.43
2022-09-12T12:24:13.327Z,4.03
2022-09-12T12:26:40.158Z,4.13
2022-09-12T12:29:11.888Z,4.00
2022-09-12T12:32:03.548Z,3.72
2022-09-12T12:34:39.911Z,3.83
2022-09-12T12:37:18.832Z,4.25
2022-09-12T12:39:49.241Z,4.35
2022-09-12T12:42:38.804Z,4.20
2022-09-12T12:45:08.557Z,4.30
2022-09-12T12:47:38.659Z,4.07
2022-09-12T12:50:26.524Z,3.30
2022-09-12T12:53:06.880Z,3.40
2022-09-12T12:55:42.812Z,4.13
2022-09-12T12:58:38.675Z,4.20
2022-09-12T13:01:17.569Z,3.53
2022-09-12T13:04:15.110Z,3.75
2022-09-12T13:06:44.886Z,4.00
2022-09-12T13:09:14.530Z,4.10
2022-09-12T13:11:41.455Z,3.65
2022-09-12T13:14:42.992Z,3.35
2022-09-12T13:17:36.937Z,3.42
2022-09-12T13:20:34.263Z,3.40
2022-09-12T13:23:01.000Z,3.42
2022-09-12T13:25:35.992Z,3.88
2022-09-12T13:28:06.020Z,3.28
2022-09-12T13:30:39.173Z,3.65
2022-09-12T13:33:20.835Z,3.67
2022-09-12T13:35:50.245Z,3.50
2022-09-12T13:38:40.518Z,3.95
2022-09-12T13:41:31.770Z,3.30
2022-09-12T13:43:59.373Z,3.38
2022-09-12T13:46:32.477Z,3.97
2022-09-12T13:49:01.958Z,3.78
2022-09-12T13:51:32.015Z,3.55
2022-09-12T13:54:05.303Z,4.40
2022-09-12T13:56:32.116Z,3.70
2022-09-12T13:59:01.186Z,3.78
2022-09-12T14:01:42.374Z,3.92
2022-09-12T14:04:44.919Z,3.88
2022-09-12T14:07:20.203Z,3.63
2022-09-12T14:09:55.012Z,3.33
2022-09-12T14:12:43.864Z,3.42
2022-09-12T14:15:25.297Z,3.78
2022-09-12T14:17:54.792Z,3.40
2022-09-12T14:20:23.441Z,3.42
2022-09-12T14:22:52.237Z,3.42
2022-09-12T14:25:29.567Z,3.88
2022-09-12T14:27:59.021Z,3.33
2022-09-12T14:30:30.253Z,2.90
2022-09-12T14:33:05.911Z,2.80
2022-09-12T14:35:33.155Z,3.35
2022-09-12T14:38:08.629Z,3.33
2022-09-12T14:40:48.625Z,3.08
2022-09-12T14:43:24.311Z,3.47
2022-09-12T14:46:24.726Z,3.38
2022-09-12T14:48:54.879Z,3.05
2022-09-12T14:51:26.882Z,3.35
2022-09-12T14:53:53.949Z,2.60
2022-09-12T14:56:22.663Z,2.75
2022-09-12T14:58:50.416Z,2.90
2022-09-12T15:01:25.166Z,2.47
2022-09-12T15:03:54.590Z,3.47
2022-09-12T15:06:29.121Z,2.53
2022-09-12T15:08:59.364Z,2.83
2022-09-12T15:11:26.409Z,2.65
2022-09-12T15:13:53.337Z,2.60
2022-09-12T15:16:23.364Z,2.63
2022-09-12T15:18:50.101Z,2.45
2022-09-12T15:21:20.291Z,3.20
2022-09-12T15:23:48.080Z,2.85
2022-09-12T15:26:21.941Z,2.90
2022-09-12T15:28:49.345Z,2.60
2022-09-12T15:31:24.667Z,2.90
2022-09-12T15:33:51.468Z,2.80
2022-09-12T15:36:20.634Z,2.90
2022-09-12T15:38:48.483Z,2.70
2022-09-12T15:41:17.961Z,2.78
2022-09-12T15:43:45.522Z,2.78
2022-09-12T15:46:13.325Z,2.63
2022-09-12T15:48:40.248Z,2.47
2022-09-12T15:51:15.954Z,2.70
2022-09-12T15:53:43.813Z,2.50
2022-09-12T15:56:10.692Z,2.53
2022-09-12T15:58:49.763Z,2.53
2022-09-12T16:01:22.901Z,2.33
2022-09-12T16:03:49.652Z,2.33
2022-09-12T16:06:16.376Z,2.50
2022-09-12T16:08:43.143Z,3.05
2022-09-12T16:11:22.392Z,2.25
2022-09-12T16:13:49.629Z,2.38
2022-09-12T16:16:16.723Z,2.65
2022-09-12T16:18:43.520Z,2.75
2022-09-12T16:21:14.852Z,2.92
2022-09-12T16:23:46.258Z,2.47
2022-09-12T16:26:13.045Z,2.85
2022-09-12T16:28:40.276Z,2.88
2022-09-12T16:31:08.538Z,3.47
2022-09-12T16:33:36.824Z,2.97
2022-09-12T16:36:09.249Z,2.92
2022-09-12T16:38:43.914Z,3.28
2022-09-12T16:41:11.507Z,3.17
2022-09-12T16:43:39.122Z,3.38
2022-09-12T16:46:09.620Z,2.63
2022-09-12T16:48:37.919Z,2.78
2022-09-12T16:51:06.807Z,3.25
2022-09-12T16:53:35.391Z,3.30
2022-09-12T16:56:02.344Z,2.80
2022-09-12T16:58:33.121Z,2.50
2022-09-12T17:01:08.216Z,2.90
2022-09-12T17:03:35.990Z,2.50
2022-09-12T17:06:08.067Z,2.70
2022-09-12T17:08:37.981Z,2.70
2022-09-12T17:11:14.736Z,2.55
2022-09-12T17:16:28.861Z,3.30
2022-09-12T17:18:55.626Z,4.40
2022-09-12T17:21:22.873Z,6.45
2022-09-12T17:23:50.045Z,6.55
2022-09-12T17:26:16.900Z,4.90
2022-09-12T17:28:44.429Z,4.35
2022-09-12T17:31:14.692Z,4.75
2022-09-12T17:33:42.306Z,4.43
2022-09-12T17:36:15.402Z,5.53
2022-09-12T17:38:44.934Z,5.25
2022-09-12T17:41:15.997Z,7.10
2022-09-12T17:43:43.892Z,4.95
2022-09-12T17:46:10.679Z,4.53
2022-09-12T17:48:37.902Z,4.32
2022-09-12T17:51:15.127Z,4.28
2022-09-12T17:53:42.448Z,4.57
2022-09-12T17:56:10.492Z,4.18
2022-09-12T17:58:37.951Z,4.43
2022-09-12T18:01:27.057Z,4.40
2022-09-12T18:03:58.701Z,3.88
2022-09-12T18:06:25.513Z,4.50
2022-09-12T18:08:52.409Z,4.30
2022-09-12T18:11:19.470Z,5.43
2022-09-12T18:13:46.183Z,4.63
2022-09-12T18:16:14.516Z,5.53
2022-09-12T18:18:41.370Z,5.88
2022-09-12T18:21:10.444Z,5.88
2022-09-12T18:23:37.690Z,5.18
2022-09-12T18:26:07.094Z,4.57
2022-09-12T18:28:39.640Z,4.90
2022-09-12T18:31:15.221Z,5.32
2022-09-12T18:33:42.660Z,4.97
2022-09-12T18:36:12.236Z,5.25
2022-09-12T18:38:39.984Z,5.25
2022-09-12T18:41:09.658Z,4.88
2022-09-12T18:43:36.749Z,5.50
2022-09-12T18:46:08.648Z,5.35
2022-09-12T18:48:36.017Z,5.05
2022-09-12T18:51:05.871Z,5.68
2022-09-12T18:53:39.466Z,4.85
2022-09-12T18:56:12.027Z,5.15
2022-09-12T18:58:40.812Z,5.85
2022-09-12T19:01:22.530Z,8.10
2022-09-12T19:03:49.632Z,5.43
2022-09-12T19:06:18.798Z,6.07
2022-09-12T19:08:46.414Z,6.55
2022-09-12T19:11:13.508Z,6.78
2022-09-12T19:13:42.920Z,7.18
2022-09-12T19:16:12.043Z,8.52
2022-09-12T19:18:40.191Z,8.88
2022-09-12T19:21:15.518Z,9.23
2022-09-12T19:23:43.175Z,9.18
2022-09-12T19:26:13.862Z,8.88
2022-09-12T19:28:41.024Z,9.40
2022-09-12T19:31:09.691Z,10.43
2022-09-12T19:33:37.005Z,11.25
2022-09-12T19:36:13.718Z,9.15
2022-09-12T19:38:48.979Z,9.02
2022-09-12T19:41:15.718Z,8.57
2022-09-12T19:46:18.678Z,7.53
2022-09-12T19:48:45.949Z,7.57
2022-09-12T19:51:14.850Z,7.38
2022-09-12T19:53:42.768Z,6.85
2022-09-12T19:56:12.276Z,5.82
2022-09-12T19:58:44.736Z,6.85
2022-09-12T20:01:31.049Z,6.45
2022-09-12T20:03:58.846Z,6.47
2022-09-12T20:06:27.230Z,6.90
2022-09-12T20:08:55.021Z,7.47
2022-09-12T20:11:23.722Z,8.80
2022-09-12T20:13:51.142Z,9.60
2022-09-12T20:16:22.191Z,9.52
2022-09-12T20:19:00.537Z,7.55
2022-09-12T20:21:31.859Z,6.80
2022-09-12T20:24:12.006Z,7.85
2022-09-12T20:26:39.958Z,8.10
2022-09-12T20:29:07.262Z,6.18
2022-09-12T20:31:34.989Z,6.10
2022-09-12T20:34:02.328Z,7.47
2022-09-12T20:39:23.309Z,7.35
2022-09-12T20:41:50.546Z,9.10
2022-09-12T20:44:17.572Z,7.28
2022-09-12T20:46:44.699Z,7.13
2022-09-12T20:49:11.592Z,8.32
2022-09-12T20:51:38.648Z,8.07
2022-09-12T20:54:07.186Z,7.55
2022-09-12T20:56:36.488Z,7.32
2022-09-12T20:59:04.345Z,7.65
2022-09-12T21:01:31.930Z,8.55
2022-09-12T21:04:01.260Z,7.57
2022-09-12T21:06:28.290Z,7.22
2022-09-12T21:08:59.595Z,7.35
2022-09-12T21:11:28.144Z,8.30
2022-09-12T21:13:55.076Z,7.70
2022-09-12T21:16:23.644Z,7.25
2022-09-12T21:18:59.644Z,7.60
2022-09-12T21:21:27.106Z,7.85
2022-09-12T21:23:58.385Z,7.30
2022-09-12T21:26:25.393Z,7.10
2022-09-12T21:28:52.222Z,7.47
2022-09-12T21:34:26.151Z,7.47
2022-09-12T21:41:19.021Z,7.50
2022-09-12T21:44:10.412Z,7.22
2022-09-12T21:47:18.382Z,7.82
2022-09-12T21:55:03.454Z,7.28
2022-09-12T21:57:51.777Z,8.07
2022-09-12T22:00:19.501Z,7.72
2022-09-12T22:02:50.486Z,9.02
2022-09-12T22:05:21.447Z,9.15
2022-09-12T22:07:51.570Z,7.55
2022-09-12T22:10:35.547Z,7.88
2022-09-12T22:14:00.779Z,7.72
2022-09-12T22:25:31.814Z,6.75
2022-09-12T22:40:05.171Z,8.00
2022-09-12T22:43:58.068Z,7.07
2022-09-12T22:46:45.217Z,7.32
2022-09-12T22:49:12.780Z,7.10
2022-09-12T22:51:40.135Z,7.75
2022-09-12T22:54:09.227Z,6.45
2022-09-12T22:56:36.107Z,7.35
2022-09-12T22:59:03.270Z,6.88
2022-09-12T23:01:31.782Z,7.40
2022-09-12T23:03:59.185Z,7.38
2022-09-12T23:06:26.218Z,7.25
2022-09-12T23:08:53.091Z,7.70
2022-09-12T23:13:49.822Z,7.63
2022-09-12T23:16:23.108Z,7.18
2022-09-12T23:18:50.586Z,8.15
2022-09-12T23:21:19.759Z,7.10
2022-09-12T23:23:46.602Z,7.25
2022-09-12T23:28:48.944Z,7.63
2022-09-12T23:31:17.151Z,7.43
2022-09-12T23:33:44.536Z,6.65
2022-09-12T23:36:14.058Z,7.35
2022-09-12T23:38:42.876Z,6.53
2022-09-12T23:41:11.089Z,7.78
2022-09-12T23:43:38.712Z,7.20
2022-09-12T23:46:06.586Z,6.32
2022-09-12T23:48:34.424Z,6.22
2022-09-12T23:51:01.447Z,6.68
2022-09-12T23:53:29.694Z,6.25
2022-09-12T23:55:56.593Z,6.53
